sensor_id;sensor_type;location;lat;lon;timestamp;temperature;humidity
51273;DHT22;37345;59.828;30.328;2022-08-02T00:00:19;16.60;99.90
51273;DHT22;37345;59.828;30.328;2022-08-02T00:02:45;16.50;99.90
51273;DHT22;37345;59.828;30.328;2022-08-02T00:05:12;16.60;99.90
51273;DHT22;37345;59.828;30.328;2022-08-02T00:07:38;16.60;99.90
51273;DHT22;37345;59.828;30.328;2022-08-02T00:10:05;16.70;99.90
51273;DHT22;37345;59.828;30.328;2022-08-02T00:12:31;16.70;99.90
51273;DHT22;37345;59.828;30.328;2022-08-02T00:14:57;16.70;99.90
51273;DHT22;37345;59.828;30.328;2022-08-02T00:17:23;16.70;99.90
51273;DHT22;37345;59.828;30.328;2022-08-02T00:19:49;16.70;99.90
51273;DHT22;37345;59.828;30.328;2022-08-02T00:22:15;16.80;99.90
51273;DHT22;37345;59.828;30.328;2022-08-02T00:24:41;16.70;99.90
51273;DHT22;37345;59.828;30.328;2022-08-02T00:27:06;16.80;99.90
51273;DHT22;37345;59.828;30.328;2022-08-02T00:29:33;16.80;99.90
51273;DHT22;37345;59.828;30.328;2022-08-02T00:32:01;16.90;99.90
51273;DHT22;37345;59.828;30.328;2022-08-02T00:34:26;16.80;99.90
51273;DHT22;37345;59.828;30.328;2022-08-02T00:36:52;16.90;99.90
51273;DHT22;37345;59.828;30.328;2022-08-02T00:39:18;16.90;99.90
51273;DHT22;37345;59.828;30.328;2022-08-02T00:41:46;16.90;99.90
51273;DHT22;37345;59.828;30.328;2022-08-02T00:44:16;17.00;99.90
51273;DHT22;37345;59.828;30.328;2022-08-02T00:46:43;17.00;99.90
51273;DHT22;37345;59.828;30.328;2022-08-02T00:49:10;16.90;99.90
51273;DHT22;37345;59.828;30.328;2022-08-02T00:51:36;16.90;99.90
51273;DHT22;37345;59.828;30.328;2022-08-02T00:54:02;16.90;99.90
51273;DHT22;37345;59.828;30.328;2022-08-02T00:56:28;17.00;99.90
51273;DHT22;37345;59.828;30.328;2022-08-02T00:58:54;17.00;99.90
51273;DHT22;37345;59.828;30.328;2022-08-02T01:01:20;17.00;99.90
51273;DHT22;37345;59.828;30.328;2022-08-02T01:04:07;17.00;99.90
51273;DHT22;37345;59.828;30.328;2022-08-02T01:06:34;17.00;99.90
51273;DHT22;37345;59.828;30.328;2022-08-02T01:09:00;17.10;99.90
51273;DHT22;37345;59.828;30.328;2022-08-02T01:11:27;17.10;99.90
51273;DHT22;37345;59.828;30.328;2022-08-02T01:14:06;17.00;99.90
51273;DHT22;37345;59.828;30.328;2022-08-02T01:16:37;17.10;99.90
51273;DHT22;37345;59.828;30.328;2022-08-02T01:22:15;17.10;99.90
51273;DHT22;37345;59.828;30.328;2022-08-02T01:30:13;17.20;99.90
51273;DHT22;37345;59.828;30.328;2022-08-02T01:32:47;17.10;99.90
51273;DHT22;37345;59.828;30.328;2022-08-02T01:35:20;17.10;99.90
51273;DHT22;37345;59.828;30.328;2022-08-02T01:41:02;17.20;99.90
51273;DHT22;37345;59.828;30.328;2022-08-02T01:43:29;17.10;99.90
51273;DHT22;37345;59.828;30.328;2022-08-02T01:45:57;17.10;99.90
51273;DHT22;37345;59.828;30.328;2022-08-02T01:48:25;17.20;99.90
51273;DHT22;37345;59.828;30.328;2022-08-02T01:50:53;17.30;99.90
51273;DHT22;37345;59.828;30.328;2022-08-02T01:53:20;17.20;99.90
51273;DHT22;37345;59.828;30.328;2022-08-02T01:55:49;17.20;99.90
51273;DHT22;37345;59.828;30.328;2022-08-02T01:58:18;17.30;99.90
51273;DHT22;37345;59.828;30.328;2022-08-02T02:00:45;17.20;99.90
51273;DHT22;37345;59.828;30.328;2022-08-02T02:03:18;17.30;99.90
51273;DHT22;37345;59.828;30.328;2022-08-02T02:05:46;17.30;99.90
51273;DHT22;37345;59.828;30.328;2022-08-02T02:08:14;17.30;99.90
51273;DHT22;37345;59.828;30.328;2022-08-02T02:10:44;17.20;99.90
51273;DHT22;37345;59.828;30.328;2022-08-02T02:13:16;17.30;99.90
51273;DHT22;37345;59.828;30.328;2022-08-02T02:15:46;17.30;99.90
51273;DHT22;37345;59.828;30.328;2022-08-02T02:18:17;17.30;99.90
51273;DHT22;37345;59.828;30.328;2022-08-02T02:20:45;17.30;99.90
51273;DHT22;37345;59.828;30.328;2022-08-02T02:23:12;17.40;99.90
51273;DHT22;37345;59.828;30.328;2022-08-02T02:25:40;17.40;99.90
51273;DHT22;37345;59.828;30.328;2022-08-02T02:28:11;17.30;99.90
51273;DHT22;37345;59.828;30.328;2022-08-02T02:30:43;17.30;99.90
51273;DHT22;37345;59.828;30.328;2022-08-02T02:33:13;17.40;99.90
51273;DHT22;37345;59.828;30.328;2022-08-02T02:35:42;17.40;99.90
51273;DHT22;37345;59.828;30.328;2022-08-02T02:38:13;17.30;99.90
51273;DHT22;37345;59.828;30.328;2022-08-02T02:40:40;17.30;99.90
51273;DHT22;37345;59.828;30.328;2022-08-02T02:43:07;17.30;99.90
51273;DHT22;37345;59.828;30.328;2022-08-02T02:45:35;17.30;99.90
51273;DHT22;37345;59.828;30.328;2022-08-02T02:48:03;17.20;99.90
51273;DHT22;37345;59.828;30.328;2022-08-02T02:50:30;17.30;99.90
51273;DHT22;37345;59.828;30.328;2022-08-02T02:52:57;17.30;99.90
51273;DHT22;37345;59.828;30.328;2022-08-02T02:55:24;17.30;99.90
51273;DHT22;37345;59.828;30.328;2022-08-02T02:57:50;17.30;99.90
51273;DHT22;37345;59.828;30.328;2022-08-02T03:00:16;17.30;99.90
51273;DHT22;37345;59.828;30.328;2022-08-02T03:02:43;17.30;99.90
51273;DHT22;37345;59.828;30.328;2022-08-02T03:05:11;17.30;99.90
51273;DHT22;37345;59.828;30.328;2022-08-02T03:07:39;17.30;99.90
51273;DHT22;37345;59.828;30.328;2022-08-02T03:10:06;17.30;99.90
51273;DHT22;37345;59.828;30.328;2022-08-02T03:12:35;17.40;99.90
51273;DHT22;37345;59.828;30.328;2022-08-02T03:15:04;17.30;99.90
51273;DHT22;37345;59.828;30.328;2022-08-02T03:17:43;17.30;99.90
51273;DHT22;37345;59.828;30.328;2022-08-02T03:20:15;17.30;99.90
51273;DHT22;37345;59.828;30.328;2022-08-02T03:22:41;17.40;99.90
51273;DHT22;37345;59.828;30.328;2022-08-02T03:25:08;17.40;99.90
51273;DHT22;37345;59.828;30.328;2022-08-02T03:27:35;17.40;99.90
51273;DHT22;37345;59.828;30.328;2022-08-02T03:30:05;17.50;99.90
51273;DHT22;37345;59.828;30.328;2022-08-02T03:32:35;17.50;99.90
51273;DHT22;37345;59.828;30.328;2022-08-02T03:35:02;17.50;99.90
51273;DHT22;37345;59.828;30.328;2022-08-02T03:37:30;17.50;99.90
51273;DHT22;37345;59.828;30.328;2022-08-02T03:39:58;17.50;99.90
51273;DHT22;37345;59.828;30.328;2022-08-02T03:42:26;17.50;99.90
51273;DHT22;37345;59.828;30.328;2022-08-02T03:44:54;17.50;99.90
51273;DHT22;37345;59.828;30.328;2022-08-02T03:47:21;17.50;99.90
51273;DHT22;37345;59.828;30.328;2022-08-02T03:49:48;17.50;99.90
51273;DHT22;37345;59.828;30.328;2022-08-02T03:52:14;17.50;99.90
51273;DHT22;37345;59.828;30.328;2022-08-02T03:54:41;17.50;99.90
51273;DHT22;37345;59.828;30.328;2022-08-02T03:57:06;17.50;99.90
51273;DHT22;37345;59.828;30.328;2022-08-02T03:59:40;17.50;99.90
51273;DHT22;37345;59.828;30.328;2022-08-02T04:02:07;17.50;99.90
51273;DHT22;37345;59.828;30.328;2022-08-02T04:04:33;17.50;99.90
51273;DHT22;37345;59.828;30.328;2022-08-02T04:06:59;17.50;99.90
51273;DHT22;37345;59.828;30.328;2022-08-02T04:09:25;17.50;99.90
51273;DHT22;37345;59.828;30.328;2022-08-02T04:11:50;17.50;99.90
51273;DHT22;37345;59.828;30.328;2022-08-02T04:14:16;17.50;99.90
51273;DHT22;37345;59.828;30.328;2022-08-02T04:16:55;17.60;99.90
51273;DHT22;37345;59.828;30.328;2022-08-02T04:19:27;17.60;99.90
51273;DHT22;37345;59.828;30.328;2022-08-02T04:21:57;17.60;99.90
51273;DHT22;37345;59.828;30.328;2022-08-02T04:24:26;17.60;99.90
51273;DHT22;37345;59.828;30.328;2022-08-02T04:26:55;17.70;99.90
51273;DHT22;37345;59.828;30.328;2022-08-02T04:29:21;17.60;99.90
51273;DHT22;37345;59.828;30.328;2022-08-02T04:31:49;17.70;99.90
51273;DHT22;37345;59.828;30.328;2022-08-02T04:34:15;17.70;99.90
51273;DHT22;37345;59.828;30.328;2022-08-02T04:36:41;17.70;99.90
51273;DHT22;37345;59.828;30.328;2022-08-02T04:39:07;17.70;99.90
51273;DHT22;37345;59.828;30.328;2022-08-02T04:41:37;17.60;99.90
51273;DHT22;37345;59.828;30.328;2022-08-02T04:44:03;17.60;99.90
51273;DHT22;37345;59.828;30.328;2022-08-02T04:46:29;17.60;99.90
51273;DHT22;37345;59.828;30.328;2022-08-02T04:48:55;17.70;99.90
51273;DHT22;37345;59.828;30.328;2022-08-02T04:51:21;17.70;99.90
51273;DHT22;37345;59.828;30.328;2022-08-02T04:53:47;17.70;99.90
51273;DHT22;37345;59.828;30.328;2022-08-02T04:56:13;17.70;99.90
51273;DHT22;37345;59.828;30.328;2022-08-02T04:58:38;17.70;99.90
51273;DHT22;37345;59.828;30.328;2022-08-02T05:01:04;17.80;99.90
51273;DHT22;37345;59.828;30.328;2022-08-02T05:03:30;17.90;99.90
51273;DHT22;37345;59.828;30.328;2022-08-02T05:05:56;17.90;99.90
51273;DHT22;37345;59.828;30.328;2022-08-02T05:08:22;17.80;99.90
51273;DHT22;37345;59.828;30.328;2022-08-02T05:10:47;17.90;99.90
51273;DHT22;37345;59.828;30.328;2022-08-02T05:13:13;17.90;99.90
51273;DHT22;37345;59.828;30.328;2022-08-02T05:15:42;17.90;99.90
51273;DHT22;37345;59.828;30.328;2022-08-02T05:18:08;17.90;99.90
51273;DHT22;37345;59.828;30.328;2022-08-02T05:20:37;17.90;99.90
51273;DHT22;37345;59.828;30.328;2022-08-02T05:23:02;17.90;99.90
51273;DHT22;37345;59.828;30.328;2022-08-02T05:25:28;17.90;99.90
51273;DHT22;37345;59.828;30.328;2022-08-02T05:27:54;17.90;99.90
51273;DHT22;37345;59.828;30.328;2022-08-02T05:30:20;17.80;99.90
51273;DHT22;37345;59.828;30.328;2022-08-02T05:32:48;17.80;99.90
51273;DHT22;37345;59.828;30.328;2022-08-02T05:35:22;17.70;99.90
51273;DHT22;37345;59.828;30.328;2022-08-02T05:37:49;17.80;99.90
51273;DHT22;37345;59.828;30.328;2022-08-02T05:40:16;17.90;99.90
51273;DHT22;37345;59.828;30.328;2022-08-02T05:42:42;17.80;99.90
51273;DHT22;37345;59.828;30.328;2022-08-02T05:45:08;17.80;99.90
51273;DHT22;37345;59.828;30.328;2022-08-02T05:47:35;17.80;99.90
51273;DHT22;37345;59.828;30.328;2022-08-02T05:50:01;17.80;99.90
51273;DHT22;37345;59.828;30.328;2022-08-02T06:00:20;18.20;99.90
51273;DHT22;37345;59.828;30.328;2022-08-02T06:05:32;18.20;99.90
51273;DHT22;37345;59.828;30.328;2022-08-02T06:07:59;18.10;99.90
51273;DHT22;37345;59.828;30.328;2022-08-02T06:10:27;18.20;99.90
51273;DHT22;37345;59.828;30.328;2022-08-02T06:13:13;18.30;99.90
51273;DHT22;37345;59.828;30.328;2022-08-02T06:15:43;18.30;99.90
51273;DHT22;37345;59.828;30.328;2022-08-02T06:18:12;18.30;99.90
51273;DHT22;37345;59.828;30.328;2022-08-02T06:20:40;18.30;99.90
51273;DHT22;37345;59.828;30.328;2022-08-02T06:23:09;18.20;99.90
51273;DHT22;37345;59.828;30.328;2022-08-02T06:25:45;18.10;99.90
51273;DHT22;37345;59.828;30.328;2022-08-02T06:28:12;18.00;99.90
51273;DHT22;37345;59.828;30.328;2022-08-02T06:30:38;18.40;99.90
51273;DHT22;37345;59.828;30.328;2022-08-02T06:33:05;18.40;99.90
51273;DHT22;37345;59.828;30.328;2022-08-02T06:35:42;18.40;99.90
51273;DHT22;37345;59.828;30.328;2022-08-02T06:38:14;18.40;99.90
51273;DHT22;37345;59.828;30.328;2022-08-02T06:40:48;18.30;99.90
51273;DHT22;37345;59.828;30.328;2022-08-02T06:46:07;18.40;99.90
51273;DHT22;37345;59.828;30.328;2022-08-02T06:48:33;18.30;99.90
51273;DHT22;37345;59.828;30.328;2022-08-02T06:51:02;18.30;99.90
51273;DHT22;37345;59.828;30.328;2022-08-02T06:53:28;18.30;99.90
51273;DHT22;37345;59.828;30.328;2022-08-02T06:55:54;18.40;99.90
51273;DHT22;37345;59.828;30.328;2022-08-02T06:58:31;18.70;99.90
51273;DHT22;37345;59.828;30.328;2022-08-02T07:00:57;18.90;99.90
51273;DHT22;37345;59.828;30.328;2022-08-02T07:03:23;19.10;99.90
51273;DHT22;37345;59.828;30.328;2022-08-02T07:05:51;19.40;99.90
51273;DHT22;37345;59.828;30.328;2022-08-02T07:08:17;19.20;99.90
51273;DHT22;37345;59.828;30.328;2022-08-02T07:10:43;19.10;99.90
51273;DHT22;37345;59.828;30.328;2022-08-02T07:13:09;19.10;99.90
51273;DHT22;37345;59.828;30.328;2022-08-02T07:15:39;19.20;99.90
51273;DHT22;37345;59.828;30.328;2022-08-02T07:18:05;19.30;99.90
51273;DHT22;37345;59.828;30.328;2022-08-02T07:20:31;19.50;99.90
51273;DHT22;37345;59.828;30.328;2022-08-02T07:22:57;19.40;99.90
51273;DHT22;37345;59.828;30.328;2022-08-02T07:25:23;19.50;99.90
51273;DHT22;37345;59.828;30.328;2022-08-02T07:27:49;19.40;99.90
51273;DHT22;37345;59.828;30.328;2022-08-02T07:30:15;19.40;99.90
51273;DHT22;37345;59.828;30.328;2022-08-02T07:32:41;19.30;99.90
51273;DHT22;37345;59.828;30.328;2022-08-02T07:35:07;19.40;99.90
51273;DHT22;37345;59.828;30.328;2022-08-02T07:37:35;19.30;99.90
51273;DHT22;37345;59.828;30.328;2022-08-02T07:40:04;19.00;99.90
51273;DHT22;37345;59.828;30.328;2022-08-02T07:42:31;19.10;99.90
51273;DHT22;37345;59.828;30.328;2022-08-02T07:44:56;19.40;99.90
51273;DHT22;37345;59.828;30.328;2022-08-02T07:47:22;19.50;99.90
51273;DHT22;37345;59.828;30.328;2022-08-02T07:49:48;19.40;99.90
51273;DHT22;37345;59.828;30.328;2022-08-02T07:52:14;19.70;99.90
51273;DHT22;37345;59.828;30.328;2022-08-02T07:54:40;19.80;99.90
51273;DHT22;37345;59.828;30.328;2022-08-02T07:57:06;19.80;99.90
51273;DHT22;37345;59.828;30.328;2022-08-02T07:59:32;19.70;99.90
51273;DHT22;37345;59.828;30.328;2022-08-02T08:01:58;19.40;99.90
51273;DHT22;37345;59.828;30.328;2022-08-02T08:04:23;19.30;99.90
51273;DHT22;37345;59.828;30.328;2022-08-02T08:06:49;19.30;99.90
51273;DHT22;37345;59.828;30.328;2022-08-02T08:09:18;19.20;99.90
51273;DHT22;37345;59.828;30.328;2022-08-02T08:11:44;19.10;99.90
51273;DHT22;37345;59.828;30.328;2022-08-02T08:14:09;19.00;99.90
51273;DHT22;37345;59.828;30.328;2022-08-02T08:16:35;18.90;99.90
51273;DHT22;37345;59.828;30.328;2022-08-02T08:19:01;18.90;99.90
51273;DHT22;37345;59.828;30.328;2022-08-02T08:21:28;18.70;99.90
51273;DHT22;37345;59.828;30.328;2022-08-02T08:23:56;18.70;99.90
51273;DHT22;37345;59.828;30.328;2022-08-02T08:26:22;18.60;99.90
51273;DHT22;37345;59.828;30.328;2022-08-02T08:28:49;18.70;99.90
51273;DHT22;37345;59.828;30.328;2022-08-02T08:31:15;18.70;99.90
51273;DHT22;37345;59.828;30.328;2022-08-02T08:33:44;18.70;99.90
51273;DHT22;37345;59.828;30.328;2022-08-02T08:36:10;18.80;99.90
51273;DHT22;37345;59.828;30.328;2022-08-02T08:38:38;18.80;99.90
51273;DHT22;37345;59.828;30.328;2022-08-02T08:41:04;18.90;99.90
51273;DHT22;37345;59.828;30.328;2022-08-02T08:43:30;18.80;99.90
51273;DHT22;37345;59.828;30.328;2022-08-02T08:45:59;18.80;99.90
51273;DHT22;37345;59.828;30.328;2022-08-02T08:48:28;18.80;99.90
51273;DHT22;37345;59.828;30.328;2022-08-02T08:51:06;18.80;99.90
51273;DHT22;37345;59.828;30.328;2022-08-02T08:53:39;18.70;99.90
51273;DHT22;37345;59.828;30.328;2022-08-02T08:56:07;18.70;99.90
51273;DHT22;37345;59.828;30.328;2022-08-02T08:58:40;18.50;99.90
51273;DHT22;37345;59.828;30.328;2022-08-02T09:01:08;18.50;99.90
51273;DHT22;37345;59.828;30.328;2022-08-02T09:03:35;18.50;99.90
51273;DHT22;37345;59.828;30.328;2022-08-02T09:06:01;18.50;99.90
51273;DHT22;37345;59.828;30.328;2022-08-02T09:08:27;18.70;99.90
51273;DHT22;37345;59.828;30.328;2022-08-02T09:10:53;18.90;99.90
51273;DHT22;37345;59.828;30.328;2022-08-02T09:13:23;18.80;99.90
51273;DHT22;37345;59.828;30.328;2022-08-02T09:15:57;19.00;99.90
51273;DHT22;37345;59.828;30.328;2022-08-02T09:21:00;19.60;99.90
51273;DHT22;37345;59.828;30.328;2022-08-02T09:23:37;19.80;99.90
51273;DHT22;37345;59.828;30.328;2022-08-02T09:26:07;20.30;99.90
51273;DHT22;37345;59.828;30.328;2022-08-02T09:28:36;20.60;99.90
51273;DHT22;37345;59.828;30.328;2022-08-02T09:31:07;20.80;99.90
51273;DHT22;37345;59.828;30.328;2022-08-02T09:33:34;20.90;99.90
51273;DHT22;37345;59.828;30.328;2022-08-02T09:36:05;20.90;99.90
51273;DHT22;37345;59.828;30.328;2022-08-02T09:38:32;20.80;99.90
51273;DHT22;37345;59.828;30.328;2022-08-02T09:40:59;20.70;99.90
51273;DHT22;37345;59.828;30.328;2022-08-02T09:43:43;20.40;99.90
51273;DHT22;37345;59.828;30.328;2022-08-02T09:46:14;20.10;99.90
51273;DHT22;37345;59.828;30.328;2022-08-02T09:48:52;20.10;99.90
51273;DHT22;37345;59.828;30.328;2022-08-02T09:51:20;20.00;99.90
51273;DHT22;37345;59.828;30.328;2022-08-02T09:53:48;20.30;99.90
51273;DHT22;37345;59.828;30.328;2022-08-02T09:56:15;20.40;99.90
51273;DHT22;37345;59.828;30.328;2022-08-02T09:58:41;20.60;99.90
51273;DHT22;37345;59.828;30.328;2022-08-02T10:01:07;20.70;99.90
51273;DHT22;37345;59.828;30.328;2022-08-02T10:03:34;20.40;99.90
51273;DHT22;37345;59.828;30.328;2022-08-02T10:06:00;20.30;99.90
51273;DHT22;37345;59.828;30.328;2022-08-02T10:08:28;20.20;99.90
51273;DHT22;37345;59.828;30.328;2022-08-02T10:10:54;20.20;99.90
51273;DHT22;37345;59.828;30.328;2022-08-02T10:13:31;20.40;99.90
51273;DHT22;37345;59.828;30.328;2022-08-02T10:16:04;20.30;99.90
51273;DHT22;37345;59.828;30.328;2022-08-02T10:18:31;20.10;99.90
51273;DHT22;37345;59.828;30.328;2022-08-02T10:21:00;20.00;99.90
51273;DHT22;37345;59.828;30.328;2022-08-02T10:24:26;19.90;99.90
51273;DHT22;37345;59.828;30.328;2022-08-02T10:26:44;20.30;99.90
51273;DHT22;37345;59.828;30.328;2022-08-02T10:29:15;20.40;99.90
51273;DHT22;37345;59.828;30.328;2022-08-02T10:34:31;20.60;99.90
51273;DHT22;37345;59.828;30.328;2022-08-02T10:37:05;20.60;99.90
51273;DHT22;37345;59.828;30.328;2022-08-02T10:39:41;20.60;99.90
51273;DHT22;37345;59.828;30.328;2022-08-02T10:42:07;20.50;99.90
51273;DHT22;37345;59.828;30.328;2022-08-02T10:44:37;20.30;99.90
51273;DHT22;37345;59.828;30.328;2022-08-02T10:47:23;20.10;99.90
51273;DHT22;37345;59.828;30.328;2022-08-02T10:49:54;20.10;99.90
51273;DHT22;37345;59.828;30.328;2022-08-02T10:52:27;20.00;99.90
51273;DHT22;37345;59.828;30.328;2022-08-02T10:55:09;19.90;99.90
51273;DHT22;37345;59.828;30.328;2022-08-02T10:57:35;19.90;99.90
51273;DHT22;37345;59.828;30.328;2022-08-02T11:00:30;19.90;99.90
51273;DHT22;37345;59.828;30.328;2022-08-02T11:02:56;20.00;99.90
51273;DHT22;37345;59.828;30.328;2022-08-02T11:05:29;20.00;99.90
51273;DHT22;37345;59.828;30.328;2022-08-02T11:07:56;20.00;99.90
51273;DHT22;37345;59.828;30.328;2022-08-02T11:10:36;20.00;99.90
51273;DHT22;37345;59.828;30.328;2022-08-02T11:18:14;20.10;99.90
51273;DHT22;37345;59.828;30.328;2022-08-02T11:20:40;20.20;99.90
51273;DHT22;37345;59.828;30.328;2022-08-02T11:23:37;20.30;99.90
51273;DHT22;37345;59.828;30.328;2022-08-02T11:29:00;20.60;99.90
51273;DHT22;37345;59.828;30.328;2022-08-02T11:31:27;20.60;99.90
51273;DHT22;37345;59.828;30.328;2022-08-02T11:33:54;20.20;99.90
51273;DHT22;37345;59.828;30.328;2022-08-02T11:36:20;20.20;99.90
51273;DHT22;37345;59.828;30.328;2022-08-02T11:38:46;20.10;99.90
51273;DHT22;37345;59.828;30.328;2022-08-02T11:41:22;20.00;99.90
51273;DHT22;37345;59.828;30.328;2022-08-02T11:43:54;20.00;99.90
51273;DHT22;37345;59.828;30.328;2022-08-02T11:46:20;20.30;99.90
51273;DHT22;37345;59.828;30.328;2022-08-02T11:48:46;20.40;99.90
51273;DHT22;37345;59.828;30.328;2022-08-02T11:51:16;20.30;99.90
51273;DHT22;37345;59.828;30.328;2022-08-02T11:56:13;19.30;99.90
51273;DHT22;37345;59.828;30.328;2022-08-02T11:58:39;18.70;99.90
51273;DHT22;37345;59.828;30.328;2022-08-02T12:01:05;18.40;99.90
51273;DHT22;37345;59.828;30.328;2022-08-02T12:03:38;18.40;99.90
51273;DHT22;37345;59.828;30.328;2022-08-02T12:06:05;18.40;99.90
51273;DHT22;37345;59.828;30.328;2022-08-02T12:08:32;18.50;99.90
51273;DHT22;37345;59.828;30.328;2022-08-02T12:11:00;18.80;99.90
51273;DHT22;37345;59.828;30.328;2022-08-02T12:13:28;19.00;99.90
51273;DHT22;37345;59.828;30.328;2022-08-02T12:16:12;19.00;99.90
51273;DHT22;37345;59.828;30.328;2022-08-02T12:18:57;18.90;99.90
51273;DHT22;37345;59.828;30.328;2022-08-02T12:21:42;18.70;99.90
51273;DHT22;37345;59.828;30.328;2022-08-02T12:24:07;18.60;99.90
51273;DHT22;37345;59.828;30.328;2022-08-02T12:26:45;18.40;99.90
51273;DHT22;37345;59.828;30.328;2022-08-02T12:29:11;18.30;99.90
51273;DHT22;37345;59.828;30.328;2022-08-02T12:31:41;18.30;99.90
51273;DHT22;37345;59.828;30.328;2022-08-02T12:34:16;18.20;99.90
51273;DHT22;37345;59.828;30.328;2022-08-02T12:36:44;18.30;99.90
51273;DHT22;37345;59.828;30.328;2022-08-02T12:39:36;18.20;99.90
51273;DHT22;37345;59.828;30.328;2022-08-02T12:42:04;18.40;99.90
51273;DHT22;37345;59.828;30.328;2022-08-02T12:44:30;18.70;99.90
51273;DHT22;37345;59.828;30.328;2022-08-02T12:47:07;19.10;99.90
51273;DHT22;37345;59.828;30.328;2022-08-02T12:49:39;19.70;99.90
51273;DHT22;37345;59.828;30.328;2022-08-02T12:52:21;20.10;99.90
51273;DHT22;37345;59.828;30.328;2022-08-02T12:54:48;20.00;99.90
51273;DHT22;37345;59.828;30.328;2022-08-02T12:57:17;20.00;99.90
51273;DHT22;37345;59.828;30.328;2022-08-02T12:59:49;20.00;99.90
51273;DHT22;37345;59.828;30.328;2022-08-02T13:02:15;20.10;99.90
51273;DHT22;37345;59.828;30.328;2022-08-02T13:04:42;20.40;99.90
51273;DHT22;37345;59.828;30.328;2022-08-02T13:07:08;20.40;99.90
51273;DHT22;37345;59.828;30.328;2022-08-02T13:09:36;20.40;99.90
51273;DHT22;37345;59.828;30.328;2022-08-02T13:12:03;20.40;99.90
51273;DHT22;37345;59.828;30.328;2022-08-02T13:14:30;20.40;99.90
51273;DHT22;37345;59.828;30.328;2022-08-02T13:16:56;20.40;99.90
51273;DHT22;37345;59.828;30.328;2022-08-02T13:19:21;20.50;99.90
51273;DHT22;37345;59.828;30.328;2022-08-02T13:21:47;20.50;99.90
51273;DHT22;37345;59.828;30.328;2022-08-02T13:24:16;20.60;99.90
51273;DHT22;37345;59.828;30.328;2022-08-02T13:26:43;21.20;99.90
51273;DHT22;37345;59.828;30.328;2022-08-02T13:29:12;20.30;99.90
51273;DHT22;37345;59.828;30.328;2022-08-02T13:31:38;20.10;99.90
51273;DHT22;37345;59.828;30.328;2022-08-02T13:34:05;20.00;99.90
51273;DHT22;37345;59.828;30.328;2022-08-02T13:36:35;20.00;99.90
51273;DHT22;37345;59.828;30.328;2022-08-02T13:39:02;20.00;99.90
51273;DHT22;37345;59.828;30.328;2022-08-02T13:41:32;20.00;99.90
51273;DHT22;37345;59.828;30.328;2022-08-02T13:43:58;20.20;99.90
51273;DHT22;37345;59.828;30.328;2022-08-02T13:46:23;20.40;99.90
51273;DHT22;37345;59.828;30.328;2022-08-02T13:48:49;20.70;99.90
51273;DHT22;37345;59.828;30.328;2022-08-02T13:51:15;20.70;99.90
51273;DHT22;37345;59.828;30.328;2022-08-02T13:53:41;20.60;99.90
51273;DHT22;37345;59.828;30.328;2022-08-02T13:56:07;20.40;99.90
51273;DHT22;37345;59.828;30.328;2022-08-02T13:58:38;20.50;99.90
51273;DHT22;37345;59.828;30.328;2022-08-02T14:01:04;20.40;99.90
51273;DHT22;37345;59.828;30.328;2022-08-02T14:03:30;20.30;99.90
51273;DHT22;37345;59.828;30.328;2022-08-02T14:05:56;20.30;99.90
51273;DHT22;37345;59.828;30.328;2022-08-02T14:08:22;20.00;99.90
51273;DHT22;37345;59.828;30.328;2022-08-02T14:10:49;19.90;99.90
51273;DHT22;37345;59.828;30.328;2022-08-02T14:13:16;19.90;99.90
51273;DHT22;37345;59.828;30.328;2022-08-02T14:15:43;20.00;99.90
51273;DHT22;37345;59.828;30.328;2022-08-02T14:18:09;20.10;99.90
51273;DHT22;37345;59.828;30.328;2022-08-02T14:20:35;20.10;99.90
51273;DHT22;37345;59.828;30.328;2022-08-02T14:23:01;20.30;99.90
51273;DHT22;37345;59.828;30.328;2022-08-02T14:25:26;20.30;99.90
51273;DHT22;37345;59.828;30.328;2022-08-02T14:27:52;20.50;99.90
51273;DHT22;37345;59.828;30.328;2022-08-02T14:30:18;20.40;99.90
51273;DHT22;37345;59.828;30.328;2022-08-02T14:32:44;20.30;99.90
51273;DHT22;37345;59.828;30.328;2022-08-02T14:35:10;20.50;99.90
51273;DHT22;37345;59.828;30.328;2022-08-02T14:37:36;20.50;99.90
51273;DHT22;37345;59.828;30.328;2022-08-02T14:40:02;20.60;99.90
51273;DHT22;37345;59.828;30.328;2022-08-02T14:42:28;20.60;99.90
51273;DHT22;37345;59.828;30.328;2022-08-02T14:44:54;20.60;99.90
51273;DHT22;37345;59.828;30.328;2022-08-02T14:47:19;20.60;99.90
51273;DHT22;37345;59.828;30.328;2022-08-02T14:49:45;20.40;99.90
51273;DHT22;37345;59.828;30.328;2022-08-02T14:52:11;20.40;99.90
51273;DHT22;37345;59.828;30.328;2022-08-02T14:54:39;20.60;99.90
51273;DHT22;37345;59.828;30.328;2022-08-02T14:57:07;20.50;99.90
51273;DHT22;37345;59.828;30.328;2022-08-02T14:59:33;20.50;99.90
51273;DHT22;37345;59.828;30.328;2022-08-02T15:01:59;20.70;99.90
51273;DHT22;37345;59.828;30.328;2022-08-02T15:04:26;20.70;99.90
51273;DHT22;37345;59.828;30.328;2022-08-02T15:06:52;20.70;99.90
51273;DHT22;37345;59.828;30.328;2022-08-02T15:09:19;20.80;99.90
51273;DHT22;37345;59.828;30.328;2022-08-02T15:11:45;20.90;99.90
51273;DHT22;37345;59.828;30.328;2022-08-02T15:14:11;20.80;99.90
51273;DHT22;37345;59.828;30.328;2022-08-02T15:16:37;20.80;99.90
51273;DHT22;37345;59.828;30.328;2022-08-02T15:19:04;20.50;99.90
51273;DHT22;37345;59.828;30.328;2022-08-02T15:21:31;20.60;99.90
51273;DHT22;37345;59.828;30.328;2022-08-02T15:23:57;20.60;99.90
51273;DHT22;37345;59.828;30.328;2022-08-02T15:26:22;20.60;99.90
51273;DHT22;37345;59.828;30.328;2022-08-02T15:28:49;20.60;99.90
51273;DHT22;37345;59.828;30.328;2022-08-02T15:31:15;20.60;99.90
51273;DHT22;37345;59.828;30.328;2022-08-02T15:33:45;20.60;99.90
51273;DHT22;37345;59.828;30.328;2022-08-02T15:36:11;20.60;99.90
51273;DHT22;37345;59.828;30.328;2022-08-02T15:38:37;20.70;99.90
51273;DHT22;37345;59.828;30.328;2022-08-02T15:41:03;20.80;99.90
51273;DHT22;37345;59.828;30.328;2022-08-02T15:43:29;20.80;99.90
51273;DHT22;37345;59.828;30.328;2022-08-02T15:45:55;20.70;99.90
51273;DHT22;37345;59.828;30.328;2022-08-02T15:48:21;20.70;99.90
51273;DHT22;37345;59.828;30.328;2022-08-02T15:50:47;20.70;99.90
51273;DHT22;37345;59.828;30.328;2022-08-02T15:53:13;20.70;99.90
51273;DHT22;37345;59.828;30.328;2022-08-02T15:55:39;20.70;99.90
51273;DHT22;37345;59.828;30.328;2022-08-02T15:58:05;20.70;99.90
51273;DHT22;37345;59.828;30.328;2022-08-02T16:00:32;20.60;99.90
51273;DHT22;37345;59.828;30.328;2022-08-02T16:02:58;20.50;99.90